Time;durP1;ratioP1;P1;durP2;ratioP2;P2;SDS_P1;SDS_P2;PMS_P1;PMS_P2;Temp;Humidity;BMP_temperature;BMP_pressure;BME280_temperature;BME280_humidity;BME280_pressure;Samples;Min_cycle;Max_cycle;Signal;HPM_P1;HPM_P2
2022/06/02 00:00:06;;;;;;;10.68;7.60;;;7.70;99.90;;;;;;5034629;28;20520;-72
2022/06/02 00:02:47;;;;;;;10.40;7.68;;;7.70;99.90;;;;;;5017929;28;20272;-72
2022/06/02 00:05:50;;;;;;;11.07;7.70;;;7.70;99.90;;;;;;5011354;28;20021;-71
2022/06/02 00:08:35;;;;;;;11.60;7.60;;;7.80;99.90;;;;;;5017135;28;20029;-72
2022/06/02 00:11:10;;;;;;;11.48;6.93;;;7.90;99.90;;;;;;5036259;28;20551;-71
2022/06/02 00:13:42;;;;;;;12.23;8.00;;;7.90;99.90;;;;;;5012641;28;20252;-71
2022/06/02 00:16:15;;;;;;;;;;;7.90;99.90;;;;;;5029545;28;20110;-72
2022/06/02 00:19:36;;;;;;;10.60;7.57;;;7.90;99.90;;;;;;5036263;28;19936;-71
2022/06/02 00:22:19;;;;;;;11.65;7.65;;;7.90;99.90;;;;;;4947926;28;20046;-72
2022/06/02 00:24:47;;;;;;;12.38;7.63;;;7.90;99.90;;;;;;5030493;28;20044;-72
2022/06/02 00:27:39;;;;;;;12.13;7.50;;;7.90;99.90;;;;;;5009048;28;20559;-72
2022/06/02 00:30:17;;;;;;;9.50;7.78;;;7.90;99.90;;;;;;5027222;28;20028;-71
2022/06/02 00:32:53;;;;;;;14.45;9.32;;;7.80;99.90;;;;;;5025926;28;20467;-71
2022/06/02 00:35:21;;;;;;;15.73;9.98;;;7.80;99.90;;;;;;5032951;28;20054;-71
2022/06/02 00:37:56;;;;;;;10.60;7.97;;;7.80;99.90;;;;;;5035544;28;20052;-72
2022/06/02 00:40:23;;;;;;;12.80;8.35;;;7.70;99.90;;;;;;5011358;28;20492;-72
2022/06/02 00:42:57;;;;;;;10.98;7.55;;;7.70;99.90;;;;;;5026210;28;20070;-72
2022/06/02 00:45:23;;;;;;;11.43;7.55;;;7.70;99.90;;;;;;5035615;28;20024;-72
2022/06/02 00:48:06;;;;;;;11.90;8.50;;;7.80;99.90;;;;;;5018072;28;20047;-71
2022/06/02 00:50:52;;;;;;;12.00;7.05;;;7.80;99.90;;;;;;5037332;28;20021;-72
2022/06/02 00:53:33;;;;;;;11.15;8.00;;;7.70;99.90;;;;;;5015997;28;20192;-72
2022/06/02 00:59:23;;;;;;;10.70;6.90;;;7.60;99.90;;;;;;5027658;28;19966;-72
2022/06/02 01:01:49;;;;;;;10.65;7.45;;;7.60;99.90;;;;;;5016191;28;20143;-72
2022/06/02 01:04:18;;;;;;;10.35;7.78;;;7.50;99.90;;;;;;5023394;28;20561;-72
2022/06/02 01:07:04;;;;;;;10.57;7.65;;;7.50;99.90;;;;;;5008402;28;20037;-72
2022/06/02 01:09:57;;;;;;;8.98;6.85;;;7.40;99.90;;;;;;5024034;28;20040;-71
2022/06/02 01:12:29;;;;;;;11.75;6.53;;;7.30;99.90;;;;;;5029268;28;20033;-72
2022/06/02 01:15:20;;;;;;;8.05;5.82;;;7.00;99.90;;;;;;5025003;28;20398;-72
2022/06/02 01:18:14;;;;;;;8.52;6.03;;;6.90;99.90;;;;;;5024079;28;20128;-72
2022/06/02 01:20:53;;;;;;;8.35;5.38;;;6.80;99.90;;;;;;5031165;28;20108;-72
2022/06/02 01:23:35;;;;;;;7.50;5.80;;;6.70;99.90;;;;;;5008242;28;20040;-72
2022/06/02 01:26:27;;;;;;;8.88;6.80;;;6.70;99.90;;;;;;5009570;28;20053;-71
2022/06/02 01:28:57;;;;;;;;;;;6.70;99.90;;;;;;5022776;28;20373;-72
2022/06/02 01:32:01;;;;;;;9.55;6.35;;;6.70;99.90;;;;;;5012048;28;19913;-71
2022/06/02 01:34:35;;;;;;;10.65;7.22;;;6.70;99.90;;;;;;5007649;28;20033;-71
2022/06/02 01:37:29;;;;;;;10.13;7.32;;;6.80;99.90;;;;;;5032438;28;20091;-72
2022/06/02 01:40:13;;;;;;;11.00;7.10;;;6.80;99.90;;;;;;5022356;28;20053;-71
2022/06/02 01:43:06;;;;;;;11.25;6.55;;;6.80;99.90;;;;;;5017978;28;20546;-71
2022/06/02 01:45:59;;;;;;;9.75;6.88;;;6.90;99.90;;;;;;5014951;28;20112;-71
2022/06/02 01:48:50;;;;;;;10.73;6.93;;;7.00;99.90;;;;;;5019574;28;20052;-71
2022/06/02 01:51:31;;;;;;;9.38;6.18;;;7.00;99.90;;;;;;5007905;28;20063;-71
2022/06/02 01:54:02;;;;;;;9.40;6.63;;;6.90;99.90;;;;;;5016075;28;20033;-71
2022/06/02 01:56:55;;;;;;;9.90;7.00;;;6.90;99.90;;;;;;5032805;28;20076;-71
2022/06/02 01:59:57;;;;;;;10.07;7.05;;;6.80;99.90;;;;;;5020182;28;20037;-71
2022/06/02 02:03:04;;;;;;;12.75;7.63;;;6.70;99.90;;;;;;5015811;28;20036;-71
2022/06/02 02:05:50;;;;;;;9.73;6.80;;;6.70;99.90;;;;;;5025002;28;20029;-71
2022/06/02 02:08:51;;;;;;;12.52;7.20;;;6.70;99.90;;;;;;5029968;28;20033;-71
2022/06/02 02:11:24;;;;;;;10.55;6.97;;;6.70;99.90;;;;;;5032689;28;20053;-71
2022/06/02 02:14:02;;;;;;;10.52;7.57;;;6.60;99.90;;;;;;5030561;28;20044;-71
2022/06/02 02:16:59;;;;;;;13.35;10.13;;;6.70;99.90;;;;;;5027467;28;20048;-72
2022/06/02 02:19:49;;;;;;;11.60;8.60;;;6.80;99.90;;;;;;5037658;28;20539;-70
2022/06/02 02:22:21;;;;;;;10.00;8.05;;;6.80;99.90;;;;;;5017353;28;20057;-71
2022/06/02 02:25:23;;;;;;;11.40;7.47;;;6.80;99.90;;;;;;5024051;28;20044;-71
2022/06/02 02:28:02;;;;;;;10.52;7.60;;;6.70;99.90;;;;;;5031145;28;20048;-71
2022/06/02 02:30:46;;;;;;;13.13;7.68;;;6.60;99.90;;;;;;5037647;28;20028;-71
2022/06/02 02:33:27;;;;;;;9.35;7.60;;;6.70;99.90;;;;;;5032730;28;20029;-71
2022/06/02 02:36:24;;;;;;;9.75;7.75;;;6.80;99.90;;;;;;5034149;28;20030;-71
2022/06/02 02:39:05;;;;;;;11.70;7.28;;;6.70;99.90;;;;;;5022627;28;20591;-71
2022/06/02 02:41:51;;;;;;;12.95;8.15;;;6.70;99.90;;;;;;5016511;28;20017;-71
2022/06/02 02:44:25;;;;;;;9.68;7.68;;;6.60;99.90;;;;;;5033640;28;20056;-71
2022/06/02 02:47:02;;;;;;;10.85;7.32;;;6.40;99.90;;;;;;5035595;28;20025;-72
2022/06/02 02:50:01;;;;;;;9.55;6.80;;;6.40;99.90;;;;;;5034011;28;20575;-71
2022/06/02 02:52:54;;;;;;;11.30;7.65;;;6.40;99.90;;;;;;5008411;28;20041;-72
2022/06/02 02:55:28;;;;;;;10.07;6.95;;;6.60;99.90;;;;;;5021792;28;20272;-71
2022/06/02 02:58:26;;;;;;;11.98;7.95;;;6.50;99.90;;;;;;5020402;28;20059;-71
2022/06/02 03:01:02;;;;;;;10.40;7.85;;;6.60;99.90;;;;;;5025474;28;20100;-71
2022/06/02 03:04:16;;;;;;;11.02;7.13;;;6.60;99.90;;;;;;5023032;28;20504;-71
2022/06/02 03:06:42;;;;;;;8.98;6.72;;;6.60;99.90;;;;;;4959724;28;20089;-71
2022/06/02 03:09:13;;;;;;;12.30;8.32;;;6.50;99.90;;;;;;5037552;28;20028;-71
2022/06/02 03:12:06;;;;;;;15.45;8.68;;;6.50;99.90;;;;;;5038620;28;20082;-71
2022/06/02 03:14:32;;;;;;;10.48;7.45;;;6.40;99.90;;;;;;5026304;28;20060;-71
2022/06/02 03:17:24;;;;;;;9.98;7.25;;;6.40;99.90;;;;;;5021465;28;20045;-71
2022/06/02 03:20:17;;;;;;;9.27;6.07;;;6.40;99.90;;;;;;5015154;28;20412;-71
2022/06/02 03:23:04;;;;;;;10.77;7.57;;;6.30;99.90;;;;;;5039780;28;20029;-71
2022/06/02 03:25:52;;;;;;;11.05;8.65;;;6.20;99.90;;;;;;5030122;28;20435;-71
2022/06/02 03:28:24;;;;;;;10.02;7.15;;;6.10;99.90;;;;;;5030899;28;20380;-71
2022/06/02 03:31:23;;;;;;;10.95;7.03;;;6.00;99.90;;;;;;5025697;28;20048;-71
2022/06/02 03:34:12;;;;;;;9.25;7.30;;;6.00;99.90;;;;;;5016019;28;20048;-71
2022/06/02 03:36:47;;;;;;;10.63;6.82;;;5.90;99.90;;;;;;5009995;28;20036;-71
2022/06/02 03:39:29;;;;;;;8.93;7.00;;;5.80;99.90;;;;;;5010650;28;20438;-71
2022/06/02 03:42:06;;;;;;;9.48;6.70;;;5.70;99.90;;;;;;5037028;28;20492;-71
2022/06/02 03:44:45;;;;;;;10.68;8.18;;;5.70;99.90;;;;;;5013159;28;20455;-71
2022/06/02 03:47:35;;;;;;;12.57;7.40;;;5.70;99.90;;;;;;5002968;28;20053;-71
2022/06/02 03:50:19;;;;;;;11.25;7.05;;;5.70;99.90;;;;;;5025210;28;20029;-71
2022/06/02 03:53:06;;;;;;;13.90;7.28;;;5.80;99.90;;;;;;5017220;28;20056;-71
2022/06/02 03:55:39;;;;;;;12.43;7.75;;;5.80;99.90;;;;;;5022396;28;20033;-71
2022/06/02 03:58:31;;;;;;;11.98;8.20;;;5.80;99.90;;;;;;5031600;28;20037;-71
2022/06/02 04:01:04;;;;;;;11.38;7.15;;;5.80;99.90;;;;;;5033034;28;20029;-71
2022/06/02 04:03:39;;;;;;;10.40;7.70;;;5.90;99.90;;;;;;5026417;28;20034;-71
2022/06/02 04:06:30;;;;;;;10.60;7.50;;;5.90;99.90;;;;;;5005129;28;20088;-71
2022/06/02 04:08:56;;;;;;;;;;;6.00;99.90;;;;;;4982746;28;20043;-71
2022/06/02 04:14:53;;;;;;;11.00;7.63;;;6.10;99.90;;;;;;5026862;28;20104;-71
2022/06/02 04:17:30;;;;;;;9.48;7.13;;;6.20;99.90;;;;;;5026579;28;20104;-71
2022/06/02 04:20:34;;;;;;;10.63;7.68;;;6.30;99.90;;;;;;5026914;28;20060;-71
2022/06/02 04:23:00;;;;;;;10.95;7.85;;;6.30;99.90;;;;;;5031758;28;20059;-71
2022/06/02 04:25:34;;;;;;;9.65;7.93;;;6.40;99.90;;;;;;5026446;28;20485;-71
2022/06/02 04:28:37;;;;;;;9.80;7.43;;;6.40;99.90;;;;;;5018961;28;20067;-71
2022/06/02 04:31:19;;;;;;;16.45;8.60;;;6.60;99.90;;;;;;5015516;28;20029;-71
2022/06/02 04:34:17;;;;;;;8.40;6.93;;;6.70;99.90;;;;;;5030067;28;20033;-71
2022/06/02 04:36:57;;;;;;;8.93;7.30;;;6.80;99.90;;;;;;5033945;28;20838;-71
2022/06/02 04:39:48;;;;;;;8.90;6.78;;;6.90;99.90;;;;;;5012191;28;20177;-71
2022/06/02 04:42:40;;;;;;;8.60;7.25;;;7.00;99.90;;;;;;5022805;28;20029;-71
2022/06/02 04:45:14;;;;;;;10.30;7.40;;;7.20;99.90;;;;;;5010442;28;20044;-71
2022/06/02 04:48:07;;;;;;;8.35;6.35;;;7.20;99.90;;;;;;5037476;28;20570;-72
2022/06/02 04:50:58;;;;;;;9.55;6.95;;;7.30;99.90;;;;;;5021099;28;20128;-71
2022/06/02 04:53:27;;;;;;;8.93;6.53;;;7.40;99.90;;;;;;5019617;28;20032;-72
2022/06/02 04:56:11;;;;;;;7.90;6.07;;;7.50;99.90;;;;;;5023415;28;20033;-71
2022/06/02 04:59:00;;;;;;;7.22;6.35;;;7.60;99.90;;;;;;5020771;28;20045;-72
2022/06/02 05:01:28;;;;;;;9.98;6.60;;;7.70;99.90;;;;;;5021122;28;20055;-71
2022/06/02 05:04:14;;;;;;;9.20;6.55;;;7.70;99.90;;;;;;5027440;28;20039;-71
2022/06/02 05:06:49;;;;;;;9.65;6.30;;;7.60;99.90;;;;;;5034088;28;20124;-71
2022/06/02 05:09:50;;;;;;;8.60;5.78;;;7.70;99.90;;;;;;5022610;28;20036;-71
2022/06/02 05:12:31;;;;;;;7.20;5.97;;;7.70;99.90;;;;;;5015266;28;20335;-71
2022/06/02 05:15:23;;;;;;;6.97;5.78;;;7.80;99.90;;;;;;5037141;28;20129;-72
2022/06/02 05:18:02;;;;;;;6.82;5.50;;;7.80;99.90;;;;;;5013973;28;20146;-71
2022/06/02 05:20:42;;;;;;;7.55;5.55;;;7.80;99.90;;;;;;5023964;28;20028;-71
2022/06/02 05:23:16;;;;;;;7.40;5.82;;;7.90;99.90;;;;;;5028100;28;20090;-71
2022/06/02 05:26:06;;;;;;;5.82;4.78;;;7.90;99.90;;;;;;5010974;28;20029;-71
2022/06/02 05:28:34;;;;;;;7.18;6.00;;;8.00;99.90;;;;;;5026447;28;20567;-71
2022/06/02 05:31:05;;;;;;;9.27;6.15;;;8.00;99.90;;;;;;5017307;28;20036;-71
2022/06/02 05:33:39;;;;;;;9.48;6.47;;;8.10;99.90;;;;;;5022532;28;20052;-72
2022/06/02 05:36:04;;;;;;;10.50;6.82;;;8.10;99.90;;;;;;5024044;28;20032;-71
2022/06/02 05:38:49;;;;;;;8.02;5.97;;;8.10;99.90;;;;;;5019360;28;20050;-71
2022/06/02 05:41:47;;;;;;;10.30;6.82;;;8.20;99.90;;;;;;5035451;28;20040;-72
2022/06/02 05:44:55;;;;;;;7.75;6.45;;;8.30;99.90;;;;;;4975968;28;20061;-72
2022/06/02 05:47:41;;;;;;;7.35;6.25;;;8.30;99.90;;;;;;5021836;28;20510;-72
2022/06/02 05:50:30;;;;;;;7.65;6.38;;;8.50;99.90;;;;;;5011407;28;20029;-72
2022/06/02 05:53:14;;;;;;;7.65;5.93;;;8.70;99.90;;;;;;5004421;28;20506;-72
2022/06/02 05:56:07;;;;;;;6.72;6.10;;;8.90;99.90;;;;;;5021879;28;20033;-72
2022/06/02 05:58:50;;;;;;;8.63;5.75;;;9.10;99.90;;;;;;5028636;28;20599;-72
2022/06/02 06:02:03;;;;;;;8.55;6.40;;;9.30;99.90;;;;;;5019010;28;20022;-72
2022/06/02 06:05:07;;;;;;;8.07;6.13;;;9.50;99.90;;;;;;4976992;28;20049;-72
2022/06/02 06:07:57;;;;;;;16.75;10.75;;;9.80;99.90;;;;;;5022103;28;20025;-72
2022/06/02 06:10:42;;;;;;;8.95;6.25;;;10.00;99.90;;;;;;5017292;28;20068;-72
2022/06/02 06:13:40;;;;;;;7.50;5.85;;;10.20;99.90;;;;;;5007459;28;20025;-72
2022/06/02 06:16:15;;;;;;;6.57;5.80;;;10.40;99.90;;;;;;5013452;28;20094;-71
2022/06/02 06:19:06;;;;;;;5.68;5.00;;;10.40;99.90;;;;;;5013596;28;20306;-72
2022/06/02 06:22:03;;;;;;;7.72;5.63;;;10.60;99.90;;;;;;5013082;28;20036;-71
2022/06/02 06:24:54;;;;;;;6.78;5.85;;;10.90;99.90;;;;;;5022371;28;20039;-72
2022/06/02 06:27:38;;;;;;;6.22;5.43;;;11.10;99.90;;;;;;5030686;28;20036;-72
2022/06/02 06:30:26;;;;;;;6.90;5.38;;;11.30;99.90;;;;;;5006204;28;20034;-72
2022/06/02 06:33:16;;;;;;;8.48;5.28;;;11.50;99.90;;;;;;5009353;28;20038;-72
2022/06/02 06:35:42;;;;;;;7.43;5.90;;;11.70;99.90;;;;;;5006799;28;20021;-72
2022/06/02 06:38:31;;;;;;;7.07;5.30;;;11.80;99.90;;;;;;5017145;28;20519;-72
2022/06/02 06:41:10;;;;;;;6.15;4.95;;;11.90;99.90;;;;;;5031190;28;20127;-72
2022/06/02 06:44:20;;;;;;;11.88;8.00;;;12.10;99.90;;;;;;4996994;28;20022;-72
2022/06/02 06:47:00;;;;;;;9.38;7.05;;;12.40;99.90;;;;;;5019367;28;20037;-71
2022/06/02 06:49:58;;;;;;;6.35;5.30;;;12.70;99.90;;;;;;5035028;28;20113;-72
2022/06/02 06:52:45;;;;;;;8.65;7.00;;;12.90;99.90;;;;;;5032858;28;20493;-72
2022/06/02 06:55:39;;;;;;;8.07;6.13;;;13.00;99.90;;;;;;5020950;28;20122;-72
2022/06/02 06:58:23;;;;;;;8.68;5.72;;;13.10;99.90;;;;;;5016128;28;20037;-72
2022/06/02 07:01:04;;;;;;;12.25;7.75;;;13.20;99.90;;;;;;5009447;28;20034;-72
2022/06/02 07:03:51;;;;;;;7.82;6.40;;;13.30;99.90;;;;;;5010113;28;20032;-73
2022/06/02 07:06:46;;;;;;;10.82;7.95;;;13.30;99.90;;;;;;5011060;28;20444;-72
2022/06/02 07:09:26;;;;;;;15.00;11.40;;;13.50;99.90;;;;;;5003629;28;20515;-71
2022/06/02 07:15:30;;;;;;;13.15;10.40;;;13.80;99.90;;;;;;5010102;28;20056;-72
2022/06/02 07:18:03;;;;;;;12.13;9.75;;;14.20;99.90;;;;;;5011524;28;20037;-72
2022/06/02 07:20:36;;;;;;;14.18;10.90;;;14.50;99.90;;;;;;5005715;28;20029;-72
2022/06/02 07:23:17;;;;;;;11.52;9.23;;;14.80;99.90;;;;;;5001456;28;20025;-72
2022/06/02 07:26:03;;;;;;;9.63;8.63;;;15.10;99.90;;;;;;5004985;28;20037;-72
2022/06/02 07:29:06;;;;;;;8.95;8.07;;;15.30;99.90;;;;;;4999869;28;20431;-71
2022/06/02 07:32:02;;;;;;;11.95;9.20;;;16.10;99.90;;;;;;4996060;28;20033;-72
2022/06/02 07:34:46;;;;;;;12.07;9.38;;;16.70;99.90;;;;;;5012518;28;20028;-71
2022/06/02 07:37:31;;;;;;;10.20;7.80;;;16.90;99.90;;;;;;5012030;28;20526;-71
2022/06/02 07:40:12;;;;;;;10.55;8.38;;;18.00;99.90;;;;;;5013231;28;20029;-72
2022/06/02 07:42:55;;;;;;;9.43;7.03;;;19.00;99.90;;;;;;5005109;28;20144;-72
2022/06/02 07:45:43;;;;;;;8.73;6.85;;;20.70;99.90;;;;;;5002329;28;20668;-72
2022/06/02 07:48:18;;;;;;;7.95;6.82;;;22.00;96.00;;;;;;5002423;28;20040;-72
2022/06/02 07:50:51;;;;;;;7.15;6.00;;;23.70;86.70;;;;;;4981847;28;20237;-71
2022/06/02 07:53:29;;;;;;;6.88;5.75;;;25.90;76.20;;;;;;5007207;28;21908;-72
2022/06/02 07:56:30;;;;;;;7.28;5.82;;;25.60;66.20;;;;;;5001717;28;20042;-72
2022/06/02 07:59:22;;;;;;;6.63;5.75;;;28.00;58.10;;;;;;5003306;28;20045;-72
2022/06/02 08:02:12;;;;;;;10.18;5.15;;;29.30;53.80;;;;;;4995893;28;20308;-71
2022/06/02 08:05:22;;;;;;;6.38;5.80;;;29.20;54.10;;;;;;4996259;28;20036;-72
2022/06/02 08:08:08;;;;;;;7.45;5.55;;;27.70;54.40;;;;;;5005692;28;20191;-72
2022/06/02 08:10:52;;;;;;;7.80;5.22;;;27.00;59.20;;;;;;4997338;28;20061;-72
2022/06/02 08:13:41;;;;;;;7.03;5.38;;;25.70;64.90;;;;;;5001171;28;20029;-72
2022/06/02 08:16:08;;;;;;;5.60;5.10;;;23.10;68.20;;;;;;5000357;28;20046;-72
2022/06/02 08:18:59;;;;;;;11.43;5.80;;;21.80;73.40;;;;;;5001363;28;20782;-72
2022/06/02 08:21:42;;;;;;;6.82;5.20;;;21.60;84.50;;;;;;5004869;28;20036;-72
2022/06/02 08:24:26;;;;;;;7.00;5.32;;;24.10;79.20;;;;;;4997432;28;20558;-72
2022/06/02 08:27:29;;;;;;;7.10;6.00;;;26.90;71.10;;;;;;5001852;28;20581;-72
2022/06/02 08:30:13;;;;;;;5.93;4.63;;;29.70;55.90;;;;;;5003247;28;20427;-72
2022/06/02 08:33:13;;;;;;;6.05;4.55;;;32.50;44.40;;;;;;5009351;28;20045;-72
2022/06/02 08:35:53;;;;;;;7.88;6.20;;;31.40;40.10;;;;;;5004657;28;20128;-72
2022/06/02 08:38:38;;;;;;;6.38;4.63;;;32.30;45.30;;;;;;5013749;28;20072;-72
2022/06/02 08:41:33;;;;;;;6.57;4.25;;;32.60;42.90;;;;;;5034832;28;20119;-73
2022/06/02 08:44:36;;;;;;;4.20;3.40;;;33.90;37.80;;;;;;5010698;28;20179;-72
2022/06/02 08:47:07;;;;;;;6.30;4.88;;;34.60;37.30;;;;;;5034187;28;20039;-72
2022/06/02 08:49:45;;;;;;;6.03;4.63;;;34.20;35.50;;;;;;5029916;28;20520;-72
2022/06/02 08:52:47;;;;;;;6.18;4.60;;;33.70;35.90;;;;;;5010662;28;20041;-72
2022/06/02 08:55:30;;;;;;;7.25;4.53;;;32.90;35.00;;;;;;5023234;28;20029;-72
2022/06/02 08:58:43;;;;;;;9.70;8.23;;;32.60;38.50;;;;;;5024575;28;20041;-73
2022/06/02 09:01:26;;;;;;;13.13;11.73;;;31.60;39.60;;;;;;4971931;28;20132;-72
2022/06/02 09:04:29;;;;;;;7.75;5.88;;;30.60;39.10;;;;;;5022670;28;20121;-72
2022/06/02 09:07:22;;;;;;;7.95;6.75;;;28.20;44.60;;;;;;5024685;28;21010;-72
2022/06/02 09:10:07;;;;;;;9.80;7.53;;;27.00;43.80;;;;;;5010788;28;20496;-73
2022/06/02 09:13:11;;;;;;;7.93;5.95;;;27.20;53.30;;;;;;5027467;28;20772;-72
2022/06/02 09:16:18;;;;;;;6.20;5.30;;;29.50;51.70;;;;;;5026536;28;20049;-73
2022/06/02 09:19:05;;;;;;;4.20;3.70;;;32.10;37.20;;;;;;4981117;28;20061;-74
2022/06/02 09:21:50;;;;;;;4.20;3.80;;;32.10;37.10;;;;;;5013157;28;20022;-71
2022/06/02 09:24:27;;;;;;;5.07;4.30;;;31.40;34.70;;;;;;5034281;28;20037;-70
2022/06/02 09:27:42;;;;;;;13.88;10.80;;;30.40;43.30;;;;;;4992209;28;20040;-72
2022/06/02 09:30:08;;;;;;;4.15;3.75;;;30.80;42.30;;;;;;4974567;28;20089;-71
2022/06/02 09:32:49;;;;;;;6.40;3.80;;;30.90;41.70;;;;;;5026216;28;20493;-70
2022/06/02 09:35:23;;;;;;;3.75;2.92;;;30.80;37.30;;;;;;5002979;28;20350;-70
2022/06/02 09:38:13;;;;;;;7.00;5.53;;;28.70;40.90;;;;;;5001507;28;20122;-71
2022/06/02 09:40:57;;;;;;;5.45;4.32;;;29.50;43.10;;;;;;5032911;28;20536;-71
2022/06/02 09:43:46;;;;;;;5.28;4.75;;;30.20;36.70;;;;;;5009898;28;20029;-71
2022/06/02 09:46:49;;;;;;;11.05;8.48;;;31.10;42.20;;;;;;5009221;28;20112;-72
2022/06/02 09:49:49;;;;;;;6.95;4.30;;;31.40;40.50;;;;;;5005284;28;20092;-71
2022/06/02 09:52:59;;;;;;;3.67;3.17;;;31.80;36.30;;;;;;4999458;28;20497;-72
2022/06/02 09:55:48;;;;;;;7.80;3.80;;;33.00;36.00;;;;;;4945242;28;20043;-72
2022/06/02 09:58:35;;;;;;;6.10;4.00;;;33.90;36.60;;;;;;4996372;28;20053;-71
2022/06/02 10:01:24;;;;;;;4.90;3.40;;;32.80;35.70;;;;;;5017772;28;20079;-73
2022/06/02 10:03:59;;;;;;;4.32;2.88;;;32.90;36.40;;;;;;5009848;28;20048;-73
2022/06/02 10:06:52;;;;;;;3.38;3.05;;;30.90;36.60;;;;;;5006161;28;20179;-74
2022/06/02 10:09:37;;;;;;;5.53;3.90;;;30.90;41.70;;;;;;4994588;28;20324;-72
2022/06/02 10:12:55;;;;;;;4.15;2.92;;;29.50;38.60;;;;;;5006098;28;20037;-72
2022/06/02 10:15:29;;;;;;;6.03;3.60;;;29.40;41.30;;;;;;5011925;28;20080;-72
2022/06/02 10:18:01;;;;;;;5.45;3.58;;;30.50;37.60;;;;;;4996443;28;20386;-71
2022/06/02 10:20:39;;;;;;;4.00;3.60;;;30.60;37.00;;;;;;5011881;28;20021;-72
2022/06/02 10:23:19;;;;;;;5.43;3.97;;;30.00;39.90;;;;;;5008079;28;20025;-72
2022/06/02 10:26:13;;;;;;;8.63;3.55;;;29.10;40.70;;;;;;5013388;28;20684;-72
2022/06/02 10:28:57;;;;;;;5.07;4.60;;;29.10;43.30;;;;;;5002811;28;20519;-73
2022/06/02 10:31:47;;;;;;;7.25;4.53;;;27.70;42.00;;;;;;4999285;28;20030;-72
2022/06/02 10:34:34;;;;;;;4.13;3.72;;;26.20;48.70;;;;;;5009405;28;20485;-72
2022/06/02 10:37:30;;;;;;;10.23;9.20;;;25.80;49.70;;;;;;5016431;28;20033;-73
2022/06/02 10:40:19;;;;;;;11.52;8.15;;;25.60;50.20;;;;;;5005020;28;20528;-71
2022/06/02 10:43:12;;;;;;;5.47;4.40;;;25.60;49.40;;;;;;5002776;28;20232;-71
2022/06/02 10:45:59;;;;;;;4.32;3.63;;;25.80;53.00;;;;;;5015217;28;20448;-72
2022/06/02 10:48:46;;;;;;;6.80;3.45;;;25.60;50.40;;;;;;5008295;28;20511;-72
2022/06/02 10:51:33;;;;;;;5.35;3.92;;;26.50;51.30;;;;;;4993927;28;20037;-72
2022/06/02 10:54:26;;;;;;;4.03;3.72;;;27.10;49.70;;;;;;5004672;28;20033;-72
2022/06/02 10:57:21;;;;;;;6.65;3.83;;;26.90;48.60;;;;;;4997053;28;20195;-73
2022/06/02 11:00:10;;;;;;;3.45;3.15;;;26.70;47.70;;;;;;5008246;28;20289;-72
2022/06/02 11:02:56;;;;;;;3.58;2.88;;;26.70;51.20;;;;;;5014624;28;20029;-72
2022/06/02 11:05:59;;;;;;;4.32;3.50;;;26.80;47.10;;;;;;5028208;28;20021;-72
2022/06/02 11:08:59;;;;;;;6.10;3.78;;;27.00;47.00;;;;;;5009337;28;20112;-72
2022/06/02 11:11:28;;;;;;;4.28;2.72;;;26.90;47.90;;;;;;4963220;28;20042;-73
2022/06/02 11:14:25;;;;;;;3.35;3.08;;;27.30;47.00;;;;;;5003599;28;20029;-72
2022/06/02 11:17:24;;;;;;;4.45;2.90;;;27.70;45.50;;;;;;5001400;28;20328;-73
2022/06/02 11:20:24;;;;;;;4.70;3.38;;;26.90;48.20;;;;;;4986330;28;20496;-73
2022/06/02 11:23:13;;;;;;;3.72;2.67;;;27.00;43.50;;;;;;4996886;28;20033;-72
2022/06/02 11:25:50;;;;;;;2.60;2.40;;;26.80;43.10;;;;;;5000115;28;20039;-70
2022/06/02 11:28:28;;;;;;;2.10;1.40;;;26.90;47.00;;;;;;5002352;28;20037;-72
2022/06/02 11:30:56;;;;;;;3.42;1.65;;;26.80;47.30;;;;;;5000784;28;20743;-71
2022/06/02 11:33:34;;;;;;;1.50;1.35;;;26.50;48.80;;;;;;4980949;28;20041;-71
2022/06/02 11:36:27;;;;;;;1.98;1.08;;;26.80;48.60;;;;;;4989728;28;20413;-72
2022/06/02 11:39:28;;;;;;;1.63;0.93;;;26.20;42.40;;;;;;4999206;28;20038;-72
2022/06/02 11:42:32;;;;;;;1.73;0.90;;;25.90;54.10;;;;;;5006369;28;20275;-71
2022/06/02 11:45:23;;;;;;;1.95;1.63;;;25.80;48.90;;;;;;4999320;28;20029;-72
2022/06/02 11:48:04;;;;;;;1.67;1.10;;;25.60;49.10;;;;;;5014805;28;20041;-71
2022/06/02 11:50:49;;;;;;;1.20;1.10;;;25.60;40.70;;;;;;4998260;28;20106;-70
2022/06/02 11:53:22;;;;;;;2.05;1.50;;;25.40;47.50;;;;;;5005497;28;20033;-70
2022/06/02 11:56:21;;;;;;;3.28;2.15;;;25.50;44.40;;;;;;5000070;28;20388;-70
2022/06/02 11:58:49;;;;;;;1.73;1.60;;;25.70;54.10;;;;;;4975765;28;20054;-71
2022/06/02 12:01:30;;;;;;;1.90;1.80;;;25.80;41.80;;;;;;5013413;28;20044;-70
2022/06/02 12:04:17;;;;;;;2.22;1.50;;;25.60;47.40;;;;;;4998425;28;20033;-72
2022/06/02 12:06:54;;;;;;;2.47;2.03;;;25.10;51.60;;;;;;4996224;28;20198;-72
2022/06/02 12:09:32;;;;;;;2.88;1.92;;;25.10;45.20;;;;;;4998126;28;20040;-72
2022/06/02 12:12:22;;;;;;;2.25;1.30;;;24.80;54.10;;;;;;5003767;28;20052;-72
2022/06/02 12:15:01;;;;;;;1.30;1.20;;;24.90;53.40;;;;;;5015192;28;20515;-71
2022/06/02 12:17:52;;;;;;;1.05;0.80;;;24.60;47.90;;;;;;5020427;28;20353;-72
2022/06/02 12:20:24;;;;;;;1.35;1.25;;;24.50;45.90;;;;;;5011083;28;20499;-72
2022/06/02 12:23:00;;;;;;;2.40;1.33;;;24.70;49.70;;;;;;5003066;28;20037;-72
2022/06/02 12:25:38;;;;;;;2.38;1.70;;;24.40;45.50;;;;;;5018462;28;20029;-73
2022/06/02 12:28:26;;;;;;;1.42;1.33;;;24.50;46.70;;;;;;5018909;28;20519;-73
2022/06/02 12:31:24;;;;;;;2.00;0.95;;;24.20;47.60;;;;;;5004315;28;20096;-72
2022/06/02 12:34:09;;;;;;;0.85;0.85;;;24.20;49.70;;;;;;5005755;28;20492;-73
2022/06/02 12:37:01;;;;;;;1.88;1.02;;;24.30;48.70;;;;;;5012172;28;20651;-73
2022/06/02 12:39:54;;;;;;;0.88;0.88;;;24.50;46.90;;;;;;4988382;28;20412;-73
2022/06/02 12:42:41;;;;;;;1.58;0.98;;;24.70;48.30;;;;;;5013139;28;20034;-73
2022/06/02 12:45:54;;;;;;;2.95;1.13;;;24.30;45.00;;;;;;5008682;28;20532;-74
2022/06/02 12:49:00;;;;;;;1.17;0.95;;;24.40;44.80;;;;;;4976629;28;20026;-74
2022/06/02 12:51:54;;;;;;;0.95;0.95;;;24.50;47.00;;;;;;4978816;28;20057;-72
2022/06/02 12:54:47;;;;;;;2.45;0.90;;;24.50;43.20;;;;;;5016039;28;20041;-72
2022/06/02 12:58:05;;;;;;;3.23;0.99;;;24.50;45.30;;;;;;4980620;28;10001165;-72
2022/06/02 13:01:16;;;;;;;0.80;0.80;;;24.70;45.50;;;;;;5007232;28;20256;-73
2022/06/02 13:04:06;;;;;;;1.13;0.90;;;25.20;49.20;;;;;;5008665;28;20045;-73
2022/06/02 13:07:17;;;;;;;1.63;1.02;;;24.80;46.90;;;;;;5015107;28;20103;-73
2022/06/02 13:10:06;;;;;;;3.10;1.00;;;24.60;47.60;;;;;;4976578;28;20049;-73
2022/06/02 13:13:20;;;;;;;1.13;1.05;;;24.40;49.80;;;;;;5011458;28;20112;-73
2022/06/02 13:16:06;;;;;;;1.20;1.10;;;24.70;57.70;;;;;;5002781;28;20055;-72
2022/06/02 13:18:32;;;;;;;1.73;0.70;;;24.80;46.20;;;;;;4998057;28;20899;-73
2022/06/02 13:21:44;;;;;;;0.70;0.68;;;24.40;50.10;;;;;;5005127;28;20029;-72
2022/06/02 13:24:22;;;;;;;0.80;0.80;;;24.60;49.90;;;;;;5009862;28;20117;-73
2022/06/02 13:27:13;;;;;;;0.63;0.63;;;24.40;47.50;;;;;;4992889;28;20037;-73
2022/06/02 13:30:06;;;;;;;1.33;0.60;;;24.30;49.10;;;;;;4992973;28;20099;-73
2022/06/02 13:33:10;;;;;;;0.65;0.65;;;24.30;45.90;;;;;;5016694;28;20123;-73
2022/06/02 13:36:10;;;;;;;0.90;0.90;;;24.30;45.20;;;;;;4967255;28;21801;-73
2022/06/02 13:39:21;;;;;;;1.33;1.13;;;24.20;43.30;;;;;;4973595;28;20895;-73
2022/06/02 13:42:14;;;;;;;2.15;0.90;;;24.00;45.40;;;;;;5017275;28;20085;-73
2022/06/02 13:44:48;;;;;;;1.85;1.05;;;23.20;46.70;;;;;;5013748;28;20580;-73
2022/06/02 13:47:26;;;;;;;0.85;0.73;;;23.30;45.10;;;;;;5020854;28;20052;-73
2022/06/02 13:50:12;;;;;;;1.75;0.70;;;23.60;53.70;;;;;;5016108;28;20025;-72
2022/06/02 13:52:53;;;;;;;1.27;0.63;;;23.60;51.10;;;;;;5001461;28;20049;-72
2022/06/02 13:58:47;;;;;;;;;;;22.70;47.90;;;;;;5017456;28;20411;-73
2022/06/02 14:01:46;;;;;;;1.25;1.15;;;23.10;46.20;;;;;;5018334;28;19952;-74
2022/06/02 14:04:38;;;;;;;1.20;0.80;;;23.40;47.00;;;;;;5011593;28;20029;-73
2022/06/02 14:07:24;;;;;;;1.23;0.80;;;23.60;48.60;;;;;;5020950;28;20322;-72
2022/06/02 14:10:26;;;;;;;2.67;0.90;;;23.30;50.10;;;;;;5016024;28;20953;-73
2022/06/02 14:13:13;;;;;;;0.80;0.80;;;23.00;46.50;;;;;;5017385;28;20135;-72
2022/06/02 14:16:09;;;;;;;0.50;0.50;;;22.50;47.20;;;;;;5011167;28;20128;-72
2022/06/02 14:18:47;;;;;;;0.90;0.90;;;22.50;47.30;;;;;;5009425;28;20045;-72
2022/06/02 14:21:31;;;;;;;;;;;22.60;51.10;;;;;;5006980;28;20042;-73
2022/06/02 14:24:08;;;;;;;;;;;22.70;54.30;;;;;;5007790;28;19970;-73
2022/06/02 14:27:05;;;;;;;1.10;0.50;;;23.00;48.70;;;;;;5007013;28;19970;-73
2022/06/02 14:29:37;;;;;;;2.27;0.60;;;23.20;45.10;;;;;;5017786;28;20071;-73
2022/06/02 14:32:22;;;;;;;;;;;22.60;47.60;;;;;;5014467;28;20029;-73
2022/06/02 14:35:09;;;;;;;0.88;0.70;;;22.70;48.10;;;;;;5018016;28;19920;-74
2022/06/02 14:37:51;;;;;;;0.57;0.57;;;22.70;47.10;;;;;;5009465;28;20424;-73
2022/06/02 14:40:17;;;;;;;;;;;22.50;45.60;;;;;;5001279;28;20034;-73
2022/06/02 14:43:03;;;;;;;;;;;22.40;50.80;;;;;;5015665;28;19923;-73